Time;durP1;ratioP1;P1;durP2;ratioP2;P2;SDS_P1;SDS_P2;PMS_P1;PMS_P2;Temp;Humidity;BMP_temperature;BMP_pressure;BME280_temperature;BME280_humidity;BME280_pressure;Samples;Min_cycle;Max_cycle;Signal;HPM_P1;HPM_P2
2024/02/29 07:12:46;;;;;;;46.63;21.52;;;;;;;;;;2085908;28;20562;-65
2024/02/29 07:16:32;;;;;;;46.72;22.50;;;;;;;;;;2085432;28;20546;-65
2024/02/29 07:17:34;;;;;;;48.22;23.13;;;;;;;;;;2081923;28;20534;-65
2024/02/29 07:18:36;;;;;;;42.13;22.45;;;;;;;;;;2074613;28;20716;-65
2024/02/29 07:19:38;;;;;;;45.70;24.20;;;;;;;;;;2066863;28;20203;-64
2024/02/29 07:20:39;;;;;;;47.92;25.27;;;;;;;;;;2071529;28;20288;-65
2024/02/29 07:21:41;;;;;;;47.40;25.48;;;;;;;;;;2073511;28;20573;-65
2024/02/29 07:22:43;;;;;;;53.50;27.60;;;;;;;;;;2072937;28;20558;-65
2024/02/29 07:23:44;;;;;;;54.78;27.70;;;;;;;;;;2072112;28;20264;-66
2024/02/29 07:24:46;;;;;;;50.50;25.73;;;;;;;;;;2072768;28;20594;-65
2024/02/29 07:25:47;;;;;;;47.38;25.60;;;;;;;;;;2072753;28;20681;-66
2024/02/29 07:26:48;;;;;;;48.00;25.08;;;;;;;;;;2071541;28;20207;-66
2024/02/29 07:27:50;;;;;;;54.35;27.40;;;;;;;;;;2071957;28;20313;-66
2024/02/29 07:28:52;;;;;;;52.42;26.92;;;;;;;;;;2073086;28;20251;-67
2024/02/29 07:29:53;;;;;;;49.22;25.42;;;;;;;;;;2067632;28;20236;-66
2024/02/29 07:30:54;;;;;;;51.33;28.10;;;;;;;;;;2082244;28;20204;-67
2024/02/29 07:31:56;;;;;;;51.22;28.25;;;;;;;;;;2086070;28;20808;-67
2024/02/29 07:32:57;;;;;;;53.90;26.58;;;;;;;;;;2072574;28;20232;-68
2024/02/29 07:34:02;;;;;;;56.78;26.45;;;;;;;;;;2075105;28;20209;-67
2024/02/29 07:35:04;;;;;;;51.15;25.80;;;;;;;;;;2075005;28;20590;-67
2024/02/29 07:36:05;;;;;;;47.20;25.50;;;;;;;;;;2070300;28;20206;-68
2024/02/29 07:37:07;;;;;;;46.25;25.77;;;;;;;;;;2072524;28;20702;-68
2024/02/29 07:38:08;;;;;;;53.88;25.88;;;;;;;;;;2072944;28;20733;-68
2024/02/29 07:39:13;;;;;;;46.65;25.00;;;;;;;;;;2073950;28;20546;-68
2024/02/29 07:40:14;;;;;;;51.25;25.80;;;;;;;;;;2072312;28;20197;-68
2024/02/29 07:41:16;;;;;;;49.38;24.80;;;;;;;;;;2073022;28;20194;-68
2024/02/29 07:42:17;;;;;;;47.03;24.92;;;;;;;;;;2073524;28;20476;-68
2024/02/29 07:43:18;;;;;;;46.10;24.73;;;;;;;;;;2070357;28;20228;-68
2024/02/29 07:44:20;;;;;;;44.97;24.23;;;;;;;;;;2073908;28;20201;-68
2024/02/29 07:45:21;;;;;;;43.17;23.52;;;;;;;;;;2069689;28;20406;-68
2024/02/29 07:46:23;;;;;;;44.20;24.77;;;;;;;;;;2071852;28;20203;-68
2024/02/29 07:47:24;;;;;;;44.65;24.63;;;;;;;;;;2068004;28;20244;-68
2024/02/29 07:48:27;;;;;;;53.53;26.52;;;;;;;;;;2068549;28;20302;-68
2024/02/29 07:49:31;;;;;;;42.33;23.50;;;;;;;;;;2067545;28;20193;-68
2024/02/29 07:50:33;;;;;;;49.03;26.08;;;;;;;;;;2068681;28;20259;-68
2024/02/29 07:51:34;;;;;;;54.08;25.13;;;;;;;;;;2067068;28;20664;-68
2024/02/29 07:52:37;;;;;;;39.70;23.67;;;;;;;;;;2070746;28;20566;-68
2024/02/29 07:53:38;;;;;;;39.72;22.40;;;;;;;;;;2071841;28;20214;-68
2024/02/29 07:54:39;;;;;;;44.60;22.50;;;;;;;;;;2071223;28;20201;-68
2024/02/29 07:55:41;;;;;;;44.45;23.02;;;;;;;;;;2069591;28;20296;-68
2024/02/29 07:56:42;;;;;;;38.22;21.52;;;;;;;;;;2070813;28;20245;-68
2024/02/29 07:57:44;;;;;;;40.78;23.00;;;;;;;;;;2069967;28;20230;-68
2024/02/29 07:58:46;;;;;;;42.75;23.50;;;;;;;;;;2072106;28;20197;-68
2024/02/29 07:59:48;;;;;;;42.95;23.90;;;;;;;;;;2071094;28;20602;-68
2024/02/29 08:00:49;;;;;;;44.92;25.48;;;;;;;;;;2072662;28;20201;-68
2024/02/29 08:01:50;;;;;;;41.63;24.40;;;;;;;;;;2075648;28;20225;-68
2024/02/29 08:02:52;;;;;;;37.70;23.80;;;;;;;;;;2067418;28;21295;-68
2024/02/29 08:03:53;;;;;;;40.53;23.60;;;;;;;;;;2071437;28;20702;-68
2024/02/29 08:04:55;;;;;;;40.35;23.92;;;;;;;;;;2072586;28;20197;-68
2024/02/29 08:05:56;;;;;;;41.20;22.50;;;;;;;;;;2073118;28;20724;-68
2024/02/29 08:07:00;;;;;;;44.45;25.83;;;;;;;;;;2068363;28;20275;-68
2024/02/29 08:08:02;;;;;;;39.83;22.27;;;;;;;;;;2073059;28;20337;-66
2024/02/29 08:09:08;;;;;;;44.40;24.98;;;;;;;;;;2072579;28;20201;-66
2024/02/29 08:10:15;;;;;;;38.40;22.33;;;;;;;;;;2069491;28;20630;-62
2024/02/29 08:11:16;;;;;;;40.13;24.08;;;;;;;;;;2088064;28;20192;-64
2024/02/29 08:12:17;;;;;;;57.00;32.20;;;;;;;;;;2086619;28;20193;-64
2024/02/29 08:13:19;;;;;;;74.60;41.55;;;;;;;;;;2066608;28;20315;-64
2024/02/29 08:14:20;;;;;;;50.13;27.35;;;;;;;;;;2075700;28;20521;-64
2024/02/29 08:15:22;;;;;;;39.67;23.73;;;;;;;;;;2070461;28;20194;-63
2024/02/29 08:16:23;;;;;;;40.78;23.08;;;;;;;;;;2068927;28;20234;-63
2024/02/29 08:17:27;;;;;;;36.78;22.73;;;;;;;;;;2065971;28;20234;-63
2024/02/29 08:18:28;;;;;;;37.42;23.08;;;;;;;;;;2071463;28;20236;-63
2024/02/29 08:19:30;;;;;;;37.55;23.58;;;;;;;;;;2070297;28;20202;-63
2024/02/29 08:20:31;;;;;;;40.95;23.30;;;;;;;;;;2070252;28;20464;-63
2024/02/29 08:21:32;;;;;;;41.47;23.27;;;;;;;;;;2069726;28;20201;-64
2024/02/29 08:22:36;;;;;;;37.38;22.20;;;;;;;;;;2071309;28;20186;-63
2024/02/29 08:23:37;;;;;;;40.17;23.52;;;;;;;;;;2071187;28;20201;-63
2024/02/29 08:24:39;;;;;;;41.75;22.70;;;;;;;;;;2069610;28;20195;-63
2024/02/29 08:25:41;;;;;;;39.90;24.90;;;;;;;;;;2071954;28;20193;-63
2024/02/29 08:26:43;;;;;;;41.45;23.35;;;;;;;;;;2069105;28;20205;-63
2024/02/29 08:27:45;;;;;;;39.45;22.30;;;;;;;;;;2065825;28;20305;-63
2024/02/29 08:28:49;;;;;;;39.55;22.13;;;;;;;;;;2063442;28;20207;-63
2024/02/29 08:29:51;;;;;;;46.58;23.85;;;;;;;;;;2063718;28;20225;-63
2024/02/29 08:30:52;;;;;;;40.85;24.08;;;;;;;;;;2062709;28;20237;-63
2024/02/29 08:31:54;;;;;;;44.60;24.17;;;;;;;;;;2062504;28;20194;-64
2024/02/29 08:32:55;;;;;;;39.60;22.95;;;;;;;;;;2065600;28;20253;-64
2024/02/29 08:33:56;;;;;;;53.67;23.25;;;;;;;;;;2063562;28;20210;-63
2024/02/29 08:34:58;;;;;;;36.33;21.33;;;;;;;;;;2062264;28;20244;-63
2024/02/29 08:35:59;;;;;;;48.50;24.15;;;;;;;;;;2065899;28;20722;-63
2024/02/29 08:37:02;;;;;;;35.95;21.60;;;;;;;;;;2064224;28;20245;-64
2024/02/29 08:38:03;;;;;;;37.38;21.67;;;;;;;;;;2066874;28;20228;-64
2024/02/29 08:39:04;;;;;;;41.40;22.50;;;;;;;;;;2068087;28;20708;-64
2024/02/29 08:40:07;;;;;;;38.90;21.55;;;;;;;;;;2065297;28;20199;-64
2024/02/29 08:41:08;;;;;;;41.15;23.38;;;;;;;;;;2061949;28;20193;-64
2024/02/29 08:42:10;;;;;;;35.63;22.13;;;;;;;;;;2062512;28;20651;-64
2024/02/29 08:43:11;;;;;;;38.33;20.10;;;;;;;;;;2061607;28;20214;-63
2024/02/29 08:44:15;;;;;;;40.60;23.67;;;;;;;;;;2066369;28;20199;-63
2024/02/29 08:45:17;;;;;;;38.97;21.45;;;;;;;;;;2065573;28;20218;-63
2024/02/29 08:46:22;;;;;;;41.80;22.63;;;;;;;;;;2063970;28;20364;-63
2024/02/29 08:47:23;;;;;;;45.05;22.52;;;;;;;;;;2065986;28;20183;-64
2024/02/29 08:48:25;;;;;;;39.70;21.95;;;;;;;;;;2064257;28;20190;-64
2024/02/29 08:49:26;;;;;;;37.40;22.02;;;;;;;;;;2065842;28;20210;-64
2024/02/29 08:50:27;;;;;;;45.92;23.35;;;;;;;;;;2067995;28;20202;-64
2024/02/29 08:51:29;;;;;;;43.90;21.92;;;;;;;;;;2067829;28;20226;-64
2024/02/29 08:52:31;;;;;;;42.45;22.83;;;;;;;;;;2066225;28;20194;-64
2024/02/29 08:53:33;;;;;;;37.78;22.13;;;;;;;;;;2065626;28;20194;-64
2024/02/29 08:54:34;;;;;;;38.58;22.80;;;;;;;;;;2061739;28;20293;-64
2024/02/29 08:55:36;;;;;;;34.85;21.25;;;;;;;;;;2063937;28;20198;-64
2024/02/29 08:56:37;;;;;;;45.95;24.35;;;;;;;;;;2066825;28;20248;-63
2024/02/29 08:57:39;;;;;;;36.72;21.25;;;;;;;;;;2062246;28;20382;-64
2024/02/29 08:58:40;;;;;;;36.40;21.67;;;;;;;;;;2061829;28;20279;-64
2024/02/29 08:59:42;;;;;;;35.90;20.48;;;;;;;;;;2064318;28;20202;-64
2024/02/29 09:00:44;;;;;;;46.60;22.10;;;;;;;;;;2063550;28;20242;-64
2024/02/29 09:01:46;;;;;;;37.28;21.23;;;;;;;;;;2061678;28;20746;-64
2024/02/29 09:02:47;;;;;;;39.35;21.23;;;;;;;;;;2054524;28;20587;-65
2024/02/29 09:03:48;;;;;;;40.33;22.98;;;;;;;;;;2066483;28;20225;-63
2024/02/29 09:04:50;;;;;;;37.03;21.25;;;;;;;;;;2064991;28;20190;-64
2024/02/29 09:05:51;;;;;;;35.28;20.52;;;;;;;;;;2064934;28;20204;-63
2024/02/29 09:06:53;;;;;;;33.42;20.60;;;;;;;;;;2064577;28;20206;-64
2024/02/29 09:07:54;;;;;;;37.65;23.00;;;;;;;;;;2063810;28;20728;-63
2024/02/29 09:08:55;;;;;;;34.17;20.27;;;;;;;;;;2061344;28;20199;-64
2024/02/29 09:09:57;;;;;;;37.88;21.70;;;;;;;;;;2063753;28;20483;-63
2024/02/29 09:10:58;;;;;;;37.97;21.08;;;;;;;;;;2063533;28;20257;-64
2024/02/29 09:12:00;;;;;;;38.25;22.77;;;;;;;;;;2067304;28;20210;-64
2024/02/29 09:13:03;;;;;;;42.53;21.75;;;;;;;;;;2062864;28;20235;-64
2024/02/29 09:14:20;;;;;;;36.15;20.52;;;;;;;;;;2063638;28;20256;-64
2024/02/29 09:15:21;;;;;;;33.72;19.73;;;;;;;;;;2062849;28;20209;-64
2024/02/29 09:16:23;;;;;;;41.90;21.10;;;;;;;;;;2064016;28;20244;-64
2024/02/29 09:17:24;;;;;;;40.00;21.35;;;;;;;;;;2065808;28;20215;-64
2024/02/29 09:18:26;;;;;;;38.00;20.08;;;;;;;;;;2067155;28;20197;-64
2024/02/29 09:19:27;;;;;;;36.42;20.77;;;;;;;;;;2068130;28;20205;-64
2024/02/29 09:20:29;;;;;;;37.20;20.10;;;;;;;;;;2065474;28;20457;-64
2024/02/29 09:21:30;;;;;;;34.15;19.55;;;;;;;;;;2064444;28;20199;-66
2024/02/29 09:22:31;;;;;;;58.50;35.10;;;;;;;;;;2061434;28;20310;-64
2024/02/29 09:23:33;;;;;;;49.22;27.73;;;;;;;;;;2065776;28;20198;-65
2024/02/29 09:24:34;;;;;;;36.00;23.58;;;;;;;;;;2064952;28;20198;-65
2024/02/29 09:25:36;;;;;;;32.70;20.48;;;;;;;;;;2067555;28;20194;-65
2024/02/29 09:26:37;;;;;;;40.35;21.45;;;;;;;;;;2066272;28;20234;-65
2024/02/29 09:27:38;;;;;;;35.65;19.65;;;;;;;;;;2062687;28;20642;-64
2024/02/29 09:28:40;;;;;;;36.17;21.85;;;;;;;;;;2068292;28;20205;-64
2024/02/29 09:29:41;;;;;;;28.35;18.67;;;;;;;;;;2066056;28;20877;-65
2024/02/29 09:30:42;;;;;;;33.20;21.35;;;;;;;;;;2063109;28;20194;-65
2024/02/29 09:31:44;;;;;;;29.85;20.45;;;;;;;;;;2063318;28;20194;-65
2024/02/29 09:32:48;;;;;;;33.45;20.45;;;;;;;;;;2064722;28;20279;-64
2024/02/29 09:33:51;;;;;;;33.03;19.63;;;;;;;;;;2067275;28;20244;-65
2024/02/29 09:34:52;;;;;;;31.00;18.48;;;;;;;;;;2066524;28;20299;-65
2024/02/29 09:35:57;;;;;;;34.42;19.98;;;;;;;;;;2066685;28;20202;-65
2024/02/29 09:36:59;;;;;;;34.20;20.65;;;;;;;;;;2065429;28;20195;-64
2024/02/29 09:38:01;;;;;;;33.17;19.35;;;;;;;;;;2062481;28;20292;-65
2024/02/29 09:39:05;;;;;;;30.48;20.35;;;;;;;;;;2066917;28;20229;-65
2024/02/29 09:40:07;;;;;;;27.40;19.23;;;;;;;;;;2065673;28;20202;-64
2024/02/29 09:41:10;;;;;;;35.10;20.33;;;;;;;;;;2062861;28;20200;-65
2024/02/29 09:42:31;;;;;;;38.83;20.30;;;;;;;;;;2063050;28;20218;-64
2024/02/29 09:43:33;;;;;;;32.20;20.13;;;;;;;;;;2064980;28;20187;-65
2024/02/29 09:44:35;;;;;;;32.53;20.40;;;;;;;;;;2063897;28;20203;-65
2024/02/29 09:45:37;;;;;;;32.78;19.92;;;;;;;;;;2067159;28;20201;-65
2024/02/29 09:46:41;;;;;;;32.53;21.00;;;;;;;;;;2065695;28;20194;-66
2024/02/29 09:47:43;;;;;;;33.22;20.45;;;;;;;;;;2065353;28;20218;-65
2024/02/29 09:48:44;;;;;;;32.05;19.85;;;;;;;;;;2060974;28;20254;-64
2024/02/29 09:49:46;;;;;;;34.28;20.15;;;;;;;;;;2066035;28;20208;-65
2024/02/29 09:50:54;;;;;;;32.20;19.48;;;;;;;;;;2056944;28;20196;-65
2024/02/29 09:51:57;;;;;;;31.13;19.42;;;;;;;;;;2059540;28;20558;-65
2024/02/29 09:53:00;;;;;;;30.33;19.23;;;;;;;;;;2064538;28;20667;-65
2024/02/29 09:54:02;;;;;;;31.80;20.05;;;;;;;;;;2065272;28;20312;-64
2024/02/29 09:55:04;;;;;;;29.77;19.38;;;;;;;;;;2062778;28;20202;-65
2024/02/29 09:56:09;;;;;;;35.97;20.60;;;;;;;;;;2067571;28;20251;-65
2024/02/29 09:57:10;;;;;;;30.70;19.10;;;;;;;;;;2063625;28;20209;-65
2024/02/29 09:58:17;;;;;;;31.50;19.08;;;;;;;;;;2065407;28;20249;-65
2024/02/29 09:59:18;;;;;;;30.55;18.63;;;;;;;;;;2065697;28;20371;-65
2024/02/29 10:00:20;;;;;;;32.80;19.13;;;;;;;;;;2059933;28;20753;-64
2024/02/29 10:01:21;;;;;;;28.17;18.90;;;;;;;;;;2060111;28;20663;-65
2024/02/29 10:02:23;;;;;;;33.72;20.38;;;;;;;;;;2060720;28;20563;-65
2024/02/29 10:03:27;;;;;;;29.83;18.52;;;;;;;;;;2078358;28;20216;-65
2024/02/29 10:04:28;;;;;;;33.15;18.90;;;;;;;;;;2076504;28;20284;-65
2024/02/29 10:05:30;;;;;;;33.25;18.65;;;;;;;;;;2066053;28;20197;-64
2024/02/29 10:06:32;;;;;;;30.90;19.25;;;;;;;;;;2063578;28;20222;-63
2024/02/29 10:07:39;;;;;;;26.05;17.13;;;;;;;;;;2065777;28;20233;-63
2024/02/29 10:08:41;;;;;;;47.45;27.98;;;;;;;;;;2064686;28;20530;-63
2024/02/29 10:09:43;;;;;;;49.58;31.15;;;;;;;;;;2055293;28;20508;-63
2024/02/29 10:10:45;;;;;;;50.97;33.22;;;;;;;;;;2060204;28;20210;-63
2024/02/29 10:11:48;;;;;;;33.00;20.98;;;;;;;;;;2066989;28;20202;-63
2024/02/29 10:12:53;;;;;;;34.78;18.90;;;;;;;;;;2065367;28;20257;-63
2024/02/29 10:13:55;;;;;;;26.42;17.20;;;;;;;;;;2061805;28;20241;-63
2024/02/29 10:14:59;;;;;;;30.30;18.73;;;;;;;;;;2059397;28;20204;-64
2024/02/29 10:16:00;;;;;;;28.65;18.75;;;;;;;;;;2063686;28;20575;-64
2024/02/29 10:17:03;;;;;;;27.10;17.88;;;;;;;;;;2064703;28;20732;-63
2024/02/29 10:18:05;;;;;;;28.15;17.85;;;;;;;;;;2064740;28;20221;-64
2024/02/29 10:19:12;;;;;;;28.50;18.52;;;;;;;;;;2065024;28;20561;-64
2024/02/29 10:20:15;;;;;;;25.15;16.92;;;;;;;;;;2063487;28;20201;-64
2024/02/29 10:21:16;;;;;;;29.00;18.17;;;;;;;;;;2060810;28;20682;-64
2024/02/29 10:22:21;;;;;;;25.55;17.90;;;;;;;;;;2061912;28;20198;-64
2024/02/29 10:23:23;;;;;;;25.00;15.88;;;;;;;;;;2058095;28;20253;-64
2024/02/29 10:24:24;;;;;;;28.65;17.75;;;;;;;;;;2063492;28;20854;-64
2024/02/29 10:25:26;;;;;;;29.13;18.90;;;;;;;;;;2065093;28;20396;-64
2024/02/29 10:26:28;;;;;;;26.75;16.15;;;;;;;;;;2064699;28;20199;-64
2024/02/29 10:27:29;;;;;;;26.30;17.38;;;;;;;;;;2061631;28;20647;-64
2024/02/29 10:28:32;;;;;;;27.75;18.08;;;;;;;;;;2060962;28;20560;-63
2024/02/29 10:29:33;;;;;;;26.35;18.17;;;;;;;;;;2062557;28;20202;-63
2024/02/29 10:30:35;;;;;;;23.55;17.13;;;;;;;;;;2063090;28;20289;-63
2024/02/29 10:31:36;;;;;;;25.75;16.85;;;;;;;;;;2064723;28;20519;-64
2024/02/29 10:32:40;;;;;;;29.98;18.08;;;;;;;;;;2060706;28;20200;-64
2024/02/29 10:33:46;;;;;;;24.77;17.33;;;;;;;;;;2060374;28;20203;-64
2024/02/29 10:34:48;;;;;;;26.30;17.42;;;;;;;;;;2062720;28;20508;-64
2024/02/29 10:35:51;;;;;;;25.25;16.60;;;;;;;;;;2061659;28;21056;-62
2024/02/29 10:36:54;;;;;;;27.25;18.00;;;;;;;;;;2064261;28;20260;-61
2024/02/29 10:37:55;;;;;;;29.42;18.77;;;;;;;;;;2066153;28;20226;-62
2024/02/29 10:38:58;;;;;;;26.20;16.85;;;;;;;;;;2066786;28;20194;-62
2024/02/29 10:40:00;;;;;;;29.08;18.00;;;;;;;;;;2065623;28;20252;-61
2024/02/29 10:41:03;;;;;;;28.45;16.73;;;;;;;;;;2063270;28;20712;-61
2024/02/29 10:42:05;;;;;;;26.90;17.52;;;;;;;;;;2064669;28;20193;-62
2024/02/29 10:43:11;;;;;;;31.02;18.90;;;;;;;;;;2061211;28;20253;-61
2024/02/29 10:44:14;;;;;;;28.42;18.27;;;;;;;;;;2062116;28;20199;-62
2024/02/29 10:45:16;;;;;;;28.20;17.27;;;;;;;;;;2065004;28;20198;-62
2024/02/29 10:46:19;;;;;;;28.65;17.33;;;;;;;;;;2064174;28;20553;-62
2024/02/29 10:47:21;;;;;;;29.73;17.42;;;;;;;;;;2065783;28;20198;-64
2024/02/29 10:48:29;;;;;;;26.83;16.92;;;;;;;;;;2067758;28;20241;-64
2024/02/29 10:49:34;;;;;;;24.90;16.05;;;;;;;;;;2065654;28;20201;-61
2024/02/29 10:50:42;;;;;;;33.70;17.55;;;;;;;;;;2064890;28;20612;-61
2024/02/29 10:51:47;;;;;;;26.92;16.02;;;;;;;;;;2065439;28;20195;-61
2024/02/29 10:52:54;;;;;;;25.85;16.70;;;;;;;;;;2063553;28;20272;-61
2024/02/29 10:53:55;;;;;;;26.60;16.00;;;;;;;;;;2063872;28;20201;-61
2024/02/29 10:55:10;;;;;;;27.33;16.20;;;;;;;;;;2061703;28;20216;-61
2024/02/29 10:56:17;;;;;;;25.08;16.25;;;;;;;;;;2081172;28;20708;-61
2024/02/29 10:57:21;;;;;;;30.48;18.10;;;;;;;;;;2078979;28;20596;-62
2024/02/29 10:58:25;;;;;;;27.17;17.70;;;;;;;;;;2063179;28;20740;-61
2024/02/29 10:59:28;;;;;;;25.42;16.40;;;;;;;;;;2066379;28;20433;-62
2024/02/29 11:00:29;;;;;;;36.28;18.13;;;;;;;;;;2064021;28;20732;-61
2024/02/29 11:01:31;;;;;;;30.98;17.70;;;;;;;;;;2060939;28;20228;-61
2024/02/29 11:02:33;;;;;;;30.48;16.27;;;;;;;;;;2058239;28;20202;-62
2024/02/29 11:03:35;;;;;;;30.63;17.73;;;;;;;;;;2063221;28;20198;-61
2024/02/29 11:04:37;;;;;;;27.63;16.35;;;;;;;;;;2064945;28;20911;-61
2024/02/29 11:05:39;;;;;;;37.53;16.75;;;;;;;;;;2067447;28;20477;-61
2024/02/29 11:06:47;;;;;;;34.15;17.63;;;;;;;;;;2063022;28;20194;-62
2024/02/29 11:07:50;;;;;;;33.80;17.10;;;;;;;;;;2064384;28;20796;-67
2024/02/29 11:08:51;;;;;;;30.55;18.17;;;;;;;;;;2064554;28;20202;-67
2024/02/29 11:09:53;;;;;;;23.60;15.88;;;;;;;;;;2062781;28;20195;-67
2024/02/29 11:10:56;;;;;;;41.45;17.45;;;;;;;;;;2064786;28;20698;-67
2024/02/29 11:12:10;;;;;;;29.83;16.25;;;;;;;;;;2063353;28;20789;-67
2024/02/29 11:13:16;;;;;;;27.73;14.30;;;;;;;;;;2063878;28;20255;-68
2024/02/29 11:14:18;;;;;;;30.13;16.00;;;;;;;;;;2062720;28;20234;-67
2024/02/29 11:15:24;;;;;;;27.65;15.93;;;;;;;;;;2061286;28;20237;-66
2024/02/29 11:16:27;;;;;;;26.20;14.65;;;;;;;;;;2063825;28;20230;-67
2024/02/29 11:17:33;;;;;;;31.70;15.63;;;;;;;;;;2063374;28;20190;-66
2024/02/29 11:18:36;;;;;;;33.67;16.20;;;;;;;;;;2064548;28;20215;-68
2024/02/29 11:19:38;;;;;;;27.00;13.38;;;;;;;;;;2064132;28;20198;-69
2024/02/29 11:21:03;;;;;;;25.67;13.75;;;;;;;;;;2066690;28;20204;-69
2024/02/29 11:22:11;;;;;;;33.25;15.65;;;;;;;;;;2065058;28;20201;-68
2024/02/29 11:23:12;;;;;;;26.60;15.18;;;;;;;;;;2063829;28;20221;-62
2024/02/29 11:24:17;;;;;;;24.95;13.98;;;;;;;;;;2066720;28;20194;-62
2024/02/29 11:25:19;;;;;;;22.98;14.10;;;;;;;;;;2065757;28;20194;-62
2024/02/29 11:26:26;;;;;;;22.08;14.68;;;;;;;;;;2065639;28;20204;-63
2024/02/29 11:27:32;;;;;;;24.85;14.05;;;;;;;;;;2063708;28;20198;-63
2024/02/29 11:28:40;;;;;;;25.25;14.52;;;;;;;;;;2062950;28;20198;-63
2024/02/29 11:29:45;;;;;;;22.20;12.55;;;;;;;;;;2060999;28;20269;-63
2024/02/29 11:30:51;;;;;;;24.95;14.57;;;;;;;;;;2065819;28;20288;-62
2024/02/29 11:31:56;;;;;;;24.50;13.57;;;;;;;;;;2064126;28;20256;-63
2024/02/29 11:33:09;;;;;;;28.50;16.50;;;;;;;;;;2062424;28;20222;-63
2024/02/29 11:34:11;;;;;;;24.15;15.77;;;;;;;;;;2061421;28;20198;-62
2024/02/29 11:35:14;;;;;;;26.73;15.48;;;;;;;;;;2065377;28;20206;-62
2024/02/29 11:36:16;;;;;;;23.33;15.23;;;;;;;;;;2063121;28;20199;-62
2024/02/29 11:37:20;;;;;;;27.80;16.33;;;;;;;;;;2065923;28;20684;-62
2024/02/29 11:38:24;;;;;;;26.60;16.17;;;;;;;;;;2064030;28;20318;-63
2024/02/29 11:39:36;;;;;;;27.60;13.80;;;;;;;;;;2064926;28;20285;-62
2024/02/29 11:40:37;;;;;;;23.35;14.00;;;;;;;;;;2064524;28;20202;-62
2024/02/29 11:41:39;;;;;;;23.52;14.15;;;;;;;;;;2063912;28;20216;-62
2024/02/29 11:42:40;;;;;;;27.58;14.75;;;;;;;;;;2062694;28;20288;-62
2024/02/29 11:43:43;;;;;;;24.52;13.93;;;;;;;;;;2063269;28;21057;-63
2024/02/29 11:44:47;;;;;;;22.90;13.15;;;;;;;;;;2062667;28;20202;-63
2024/02/29 11:45:49;;;;;;;24.33;12.68;;;;;;;;;;2064278;28;20826;-68
2024/02/29 11:46:50;;;;;;;21.70;13.18;;;;;;;;;;2062897;28;20195;-68
2024/02/29 11:47:52;;;;;;;21.65;12.43;;;;;;;;;;2060904;28;20684;-68
2024/02/29 11:48:53;;;;;;;23.50;12.90;;;;;;;;;;2063959;28;20882;-68
2024/02/29 11:49:59;;;;;;;19.63;12.50;;;;;;;;;;2062162;28;20198;-68
2024/02/29 11:51:00;;;;;;;21.83;12.80;;;;;;;;;;2063241;28;20198;-62
2024/02/29 11:52:02;;;;;;;25.33;14.05;;;;;;;;;;2067362;28;20267;-62
2024/02/29 11:53:03;;;;;;;22.70;13.43;;;;;;;;;;2062484;28;20221;-62
2024/02/29 11:54:05;;;;;;;23.92;13.55;;;;;;;;;;2067170;28;20595;-62
2024/02/29 11:55:06;;;;;;;21.42;12.52;;;;;;;;;;2065310;28;20669;-63
2024/02/29 11:56:08;;;;;;;23.73;13.10;;;;;;;;;;2063781;28;20253;-62
2024/02/29 11:57:16;;;;;;;19.95;12.38;;;;;;;;;;2063928;28;20194;-62
2024/02/29 11:58:18;;;;;;;19.60;12.00;;;;;;;;;;2061954;28;20876;-62
2024/02/29 11:59:19;;;;;;;22.67;11.27;;;;;;;;;;2063426;28;20202;-63
2024/02/29 12:00:21;;;;;;;25.77;11.43;;;;;;;;;;2062914;28;20245;-61
2024/02/29 12:01:23;;;;;;;19.33;10.75;;;;;;;;;;2065009;28;20195;-63
2024/02/29 12:02:25;;;;;;;18.27;11.13;;;;;;;;;;2063947;28;20190;-62
2024/02/29 12:03:29;;;;;;;21.08;11.45;;;;;;;;;;2065907;28;20305;-63
2024/02/29 12:04:31;;;;;;;24.40;13.55;;;;;;;;;;2064304;28;20278;-62
2024/02/29 12:05:34;;;;;;;25.98;13.50;;;;;;;;;;2061162;28;20700;-63
2024/02/29 12:06:36;;;;;;;29.08;14.80;;;;;;;;;;2067208;28;20193;-62
2024/02/29 12:07:38;;;;;;;26.00;13.75;;;;;;;;;;2064608;28;20297;-63
2024/02/29 12:08:40;;;;;;;27.17;14.38;;;;;;;;;;2064598;28;20645;-63
2024/02/29 12:09:42;;;;;;;25.13;13.65;;;;;;;;;;2066905;28;20206;-63
2024/02/29 12:10:44;;;;;;;25.05;13.88;;;;;;;;;;2066200;28;20340;-62
2024/02/29 12:11:49;;;;;;;21.27;11.82;;;;;;;;;;2065246;28;20668;-62
2024/02/29 12:12:50;;;;;;;29.92;14.05;;;;;;;;;;2061243;28;20226;-62
2024/02/29 12:13:52;;;;;;;28.92;12.85;;;;;;;;;;2060758;28;20203;-61
2024/02/29 12:14:54;;;;;;;28.40;13.45;;;;;;;;;;2061923;28;20319;-61
2024/02/29 12:15:56;;;;;;;33.50;17.20;;;;;;;;;;2063605;28;20258;-60
2024/02/29 12:16:57;;;;;;;29.50;12.60;;;;;;;;;;2068602;28;20214;-59
2024/02/29 12:17:59;;;;;;;24.58;13.77;;;;;;;;;;2068066;28;20233;-60
2024/02/29 12:19:00;;;;;;;28.27;14.82;;;;;;;;;;2067673;28;20221;-60
2024/02/29 12:20:04;;;;;;;28.70;13.38;;;;;;;;;;2067148;28;20201;-60
2024/02/29 12:21:07;;;;;;;28.45;13.20;;;;;;;;;;2064253;28;20227;-60
2024/02/29 12:22:18;;;;;;;24.08;12.57;;;;;;;;;;2055584;28;20310;-65
2024/02/29 12:23:20;;;;;;;24.63;11.68;;;;;;;;;;2058721;28;20206;-66
2024/02/29 12:24:21;;;;;;;21.17;11.85;;;;;;;;;;2068561;28;20721;-66
2024/02/29 12:25:23;;;;;;;26.77;13.15;;;;;;;;;;2061289;28;20205;-66
2024/02/29 12:26:26;;;;;;;25.30;13.52;;;;;;;;;;2065393;28;20195;-65
2024/02/29 12:27:27;;;;;;;26.00;13.60;;;;;;;;;;2065030;28;20678;-66
2024/02/29 12:28:30;;;;;;;23.80;13.05;;;;;;;;;;2064835;28;20218;-66
2024/02/29 12:29:32;;;;;;;23.50;13.57;;;;;;;;;;2065681;28;20248;-66
2024/02/29 12:30:33;;;;;;;23.10;12.20;;;;;;;;;;2063221;28;20239;-66
2024/02/29 12:31:35;;;;;;;26.63;13.65;;;;;;;;;;2065055;28;20245;-66
2024/02/29 12:32:36;;;;;;;21.33;12.02;;;;;;;;;;2064754;28;20189;-66
2024/02/29 12:33:38;;;;;;;21.73;11.90;;;;;;;;;;2065761;28;20218;-66
2024/02/29 12:34:41;;;;;;;24.67;13.05;;;;;;;;;;2065952;28;20685;-66
2024/02/29 12:35:44;;;;;;;23.63;12.95;;;;;;;;;;2066221;28;20785;-65
2024/02/29 12:36:46;;;;;;;25.40;13.02;;;;;;;;;;2068939;28;20612;-66
2024/02/29 12:37:48;;;;;;;24.95;12.88;;;;;;;;;;2067473;28;20222;-66
2024/02/29 12:38:49;;;;;;;19.77;11.25;;;;;;;;;;2066250;28;20225;-66
2024/02/29 12:39:54;;;;;;;22.98;11.43;;;;;;;;;;2066238;28;20194;-66
2024/02/29 12:40:56;;;;;;;21.45;12.05;;;;;;;;;;2065014;28;20190;-65
2024/02/29 12:41:57;;;;;;;22.27;11.70;;;;;;;;;;2062782;28;20265;-66
2024/02/29 12:42:58;;;;;;;29.92;13.82;;;;;;;;;;2064399;28;20218;-66
2024/02/29 12:44:01;;;;;;;24.17;13.30;;;;;;;;;;2065828;28;20221;-65
2024/02/29 12:45:03;;;;;;;23.75;14.43;;;;;;;;;;2067305;28;20213;-65
2024/02/29 12:46:05;;;;;;;25.42;13.90;;;;;;;;;;2067119;28;20650;-65
2024/02/29 12:47:07;;;;;;;28.67;15.57;;;;;;;;;;2064975;28;20191;-65
2024/02/29 12:48:09;;;;;;;23.48;14.43;;;;;;;;;;2063014;28;20380;-65
2024/02/29 12:49:10;;;;;;;26.42;14.77;;;;;;;;;;2065787;28;20296;-65
2024/02/29 12:50:12;;;;;;;26.67;15.98;;;;;;;;;;2065410;28;20276;-66
2024/02/29 12:51:14;;;;;;;25.80;13.85;;;;;;;;;;2069936;28;20207;-66
2024/02/29 12:52:15;;;;;;;24.50;12.95;;;;;;;;;;2064109;28;20229;-66
2024/02/29 12:53:17;;;;;;;26.00;13.05;;;;;;;;;;2062521;28;20261;-66
2024/02/29 12:54:18;;;;;;;24.98;13.00;;;;;;;;;;2062989;28;20202;-66
2024/02/29 12:55:21;;;;;;;24.77;12.10;;;;;;;;;;2061470;28;20195;-66
2024/02/29 12:56:23;;;;;;;22.98;12.93;;;;;;;;;;2062695;28;20203;-66
2024/02/29 12:57:24;;;;;;;22.33;11.88;;;;;;;;;;2064962;28;20634;-66
2024/02/29 12:58:25;;;;;;;24.42;13.73;;;;;;;;;;2065088;28;20221;-65
2024/02/29 12:59:27;;;;;;;28.15;14.13;;;;;;;;;;2062436;28;20217;-66
2024/02/29 13:00:28;;;;;;;26.63;13.13;;;;;;;;;;2065268;28;20190;-66
2024/02/29 13:01:31;;;;;;;23.98;13.55;;;;;;;;;;2066045;28;20205;-65
2024/02/29 13:02:32;;;;;;;26.48;14.18;;;;;;;;;;2064807;28;20324;-67
2024/02/29 13:03:34;;;;;;;32.95;17.88;;;;;;;;;;2067718;28;20198;-67
2024/02/29 13:04:35;;;;;;;73.18;38.45;;;;;;;;;;2068312;28;20327;-69
2024/02/29 13:05:37;;;;;;;24.55;13.57;;;;;;;;;;2066893;28;20198;-63
2024/02/29 13:06:38;;;;;;;24.10;12.32;;;;;;;;;;2067139;28;20654;-62
2024/02/29 13:07:41;;;;;;;25.05;14.27;;;;;;;;;;2061514;28;20655;-62
2024/02/29 13:08:43;;;;;;;24.50;13.55;;;;;;;;;;2063428;28;20194;-62
2024/02/29 13:09:44;;;;;;;22.42;12.93;;;;;;;;;;2066449;28;20240;-62
2024/02/29 13:10:46;;;;;;;27.50;13.90;;;;;;;;;;2067039;28;20202;-62
2024/02/29 13:11:47;;;;;;;27.85;14.18;;;;;;;;;;2064212;28;20206;-62
2024/02/29 13:12:50;;;;;;;26.77;14.25;;;;;;;;;;2064237;28;20213;-62
2024/02/29 13:14:00;;;;;;;24.17;14.30;;;;;;;;;;2062895;28;20191;-63
2024/02/29 13:15:01;;;;;;;26.98;14.57;;;;;;;;;;2065903;28;20202;-62
2024/02/29 13:16:03;;;;;;;27.42;14.82;;;;;;;;;;2065640;28;20222;-62
2024/02/29 13:17:05;;;;;;;26.73;15.07;;;;;;;;;;2067200;28;20201;-62
2024/02/29 13:18:06;;;;;;;26.38;14.65;;;;;;;;;;2068382;28;20755;-62
2024/02/29 13:19:09;;;;;;;28.20;14.77;;;;;;;;;;2068306;28;20401;-62